Time;durP1;ratioP1;P1;durP2;ratioP2;P2;SDS_P1;SDS_P2;PMS_P1;PMS_P2;Temp;Humidity;BMP_temperature;BMP_pressure;BME280_temperature;BME280_humidity;BME280_pressure;Samples;Min_cycle;Max_cycle;Signal;HPM_P1;HPM_P2
2023/08/10 00:00:59;;;;;;;;;;;20.20;80.00;;;;;;5068591;28;19955;-76
2023/08/10 00:03:25;;;;;;;;;;;20.10;80.00;;;;;;5069663;28;20337;-76
2023/08/10 00:05:50;;;;;;;;;;;20.10;80.00;;;;;;5068515;28;19912;-76
2023/08/10 00:08:16;;;;;;;;;;;20.10;80.00;;;;;;5068513;28;20398;-76
2023/08/10 00:10:41;;;;;;;;;;;20.00;80.00;;;;;;5069778;28;19942;-76
2023/08/10 00:13:08;;;;;;;;;;;20.00;80.00;;;;;;5069660;28;19931;-76
2023/08/10 00:15:34;;;;;;;;;;;20.00;80.00;;;;;;5069687;28;19912;-76
2023/08/10 00:17:59;;;;;;;;;;;20.00;80.50;;;;;;5069538;28;19970;-75
2023/08/10 00:20:25;;;;;;;;;;;20.00;80.00;;;;;;5069636;28;19957;-75
2023/08/10 00:22:52;;;;;;;;;;;19.90;80.00;;;;;;5068601;28;20330;-76
2023/08/10 00:25:17;;;;;;;;;;;19.90;80.00;;;;;;5069440;28;20418;-75
2023/08/10 00:27:43;;;;;;;;;;;19.90;80.00;;;;;;5069415;28;19944;-76
2023/08/10 00:30:09;;;;;;;;;;;19.90;80.00;;;;;;5068082;28;20018;-77
2023/08/10 00:32:35;;;;;;;;;;;19.80;80.00;;;;;;5069286;28;20050;-78
2023/08/10 00:35:02;;;;;;;;;;;19.80;80.00;;;;;;5068022;28;19912;-78
2023/08/10 00:37:28;;;;;;;;;;;19.80;80.00;;;;;;5069336;28;19919;-78
2023/08/10 00:39:53;;;;;;;;;;;19.70;79.90;;;;;;5069742;28;19912;-78
2023/08/10 00:42:19;;;;;;;;;;;19.60;79.80;;;;;;5067952;28;19999;-77
2023/08/10 00:44:44;;;;;;;;;;;19.60;79.90;;;;;;5069144;28;20414;-78
2023/08/10 00:47:10;;;;;;;;;;;19.60;79.90;;;;;;5068952;28;19931;-78
2023/08/10 00:49:36;;;;;;;;;;;19.50;79.90;;;;;;5068925;28;19912;-78
2023/08/10 00:52:01;;;;;;;;;;;19.40;79.90;;;;;;5067635;28;19924;-78
2023/08/10 00:54:27;;;;;;;;;;;19.40;80.00;;;;;;5067569;28;19981;-78
2023/08/10 00:56:53;;;;;;;;;;;19.40;80.50;;;;;;5068863;28;19913;-77
2023/08/10 00:59:18;;;;;;;;;;;19.30;80.00;;;;;;5068737;28;20506;-78
2023/08/10 01:01:44;;;;;;;;;;;19.30;80.00;;;;;;5067408;28;19912;-77
2023/08/10 01:04:10;;;;;;;;;;;19.30;80.00;;;;;;5068783;28;19924;-77
2023/08/10 01:06:42;;;;;;;;;;;19.30;80.00;;;;;;5068621;28;19995;-77
2023/08/10 01:09:19;;;;;;;;;;;19.30;80.00;;;;;;5068592;28;19920;-77
2023/08/10 01:11:50;;;;;;;;;;;19.20;80.00;;;;;;5068446;28;19912;-77
2023/08/10 01:14:35;;;;;;;;;;;19.20;80.00;;;;;;5068437;28;19919;-77
2023/08/10 01:17:03;;;;;;;;;;;19.20;80.00;;;;;;5068424;28;19912;-77
2023/08/10 01:19:32;;;;;;;;;;;19.20;80.50;;;;;;5068373;28;19909;-77
2023/08/10 01:22:02;;;;;;;;;;;19.20;80.00;;;;;;5068373;28;19955;-77
2023/08/10 01:24:31;;;;;;;;;;;19.10;79.90;;;;;;5067026;28;19976;-77
2023/08/10 01:26:57;;;;;;;;;;;19.10;79.90;;;;;;5066921;28;19959;-77
2023/08/10 01:29:23;;;;;;;;;;;19.10;80.00;;;;;;5068227;28;19939;-77
2023/08/10 01:31:48;;;;;;;;;;;19.10;80.00;;;;;;5068089;28;19916;-78
2023/08/10 01:34:14;;;;;;;;;;;19.10;80.00;;;;;;5068222;28;19969;-77
2023/08/10 01:36:40;;;;;;;;;;;19.10;80.10;;;;;;5068592;28;20357;-77
2023/08/10 01:39:06;;;;;;;;;;;19.10;80.00;;;;;;5067981;28;19953;-77
2023/08/10 01:41:31;;;;;;;;;;;19.10;80.00;;;;;;5067986;28;19912;-77
2023/08/10 01:43:57;;;;;;;;;;;19.00;79.90;;;;;;5068066;28;19920;-77
2023/08/10 01:46:23;;;;;;;;;;;19.00;79.90;;;;;;5066770;28;20385;-77
2023/08/10 01:48:52;;;;;;;;;;;19.00;79.90;;;;;;5067849;28;19908;-77
2023/08/10 01:51:20;;;;;;;;;;;19.00;79.90;;;;;;5066648;28;20187;-78
2023/08/10 01:53:47;;;;;;;;;;;19.00;79.90;;;;;;5067928;28;19909;-78
2023/08/10 01:56:13;;;;;;;;;;;18.90;79.90;;;;;;5067825;28;19912;-77
2023/08/10 01:58:39;;;;;;;;;;;18.90;79.90;;;;;;5067696;28;20030;-77
2023/08/10 02:01:04;;;;;;;;;;;18.90;79.90;;;;;;5067819;28;19915;-77
2023/08/10 02:03:30;;;;;;;;;;;18.90;79.90;;;;;;5066403;28;19932;-77
2023/08/10 02:05:55;;;;;;;;;;;18.90;79.90;;;;;;5066594;28;19962;-77
2023/08/10 02:08:21;;;;;;;;;;;18.90;80.00;;;;;;5067766;28;20478;-77
2023/08/10 02:10:46;;;;;;;;;;;18.90;79.90;;;;;;5065958;28;20129;-77
2023/08/10 02:13:12;;;;;;;;;;;18.90;79.90;;;;;;5067658;28;19926;-77
2023/08/10 02:15:37;;;;;;;;;;;18.90;79.90;;;;;;5067792;28;19952;-77
2023/08/10 02:18:03;;;;;;;;;;;18.80;79.80;;;;;;5066684;28;19963;-77
2023/08/10 02:20:29;;;;;;;;;;;18.80;79.80;;;;;;5066311;28;19913;-77
2023/08/10 02:22:54;;;;;;;;;;;18.80;79.80;;;;;;5067661;28;19916;-78
2023/08/10 02:25:20;;;;;;;;;;;18.80;79.90;;;;;;5067653;28;20381;-77
2023/08/10 02:27:46;;;;;;;;;;;18.80;79.90;;;;;;5066189;28;19954;-77
2023/08/10 02:30:13;;;;;;;;;;;18.80;79.90;;;;;;5067593;28;19908;-77
2023/08/10 02:32:39;;;;;;;;;;;18.80;79.90;;;;;;5067474;28;19913;-77
2023/08/10 02:35:04;;;;;;;;;;;18.70;79.80;;;;;;5067511;28;19908;-77
2023/08/10 02:37:30;;;;;;;;;;;18.80;79.90;;;;;;5067516;28;19962;-75
2023/08/10 02:39:56;;;;;;;;;;;18.80;79.90;;;;;;5067279;28;19908;-77
2023/08/10 02:42:21;;;;;;;;;;;18.70;79.80;;;;;;5066190;28;19919;-77
2023/08/10 02:44:49;;;;;;;;;;;18.60;79.90;;;;;;5066131;28;19923;-77
2023/08/10 02:47:15;;;;;;;;;;;18.50;80.00;;;;;;5067427;28;20068;-77
2023/08/10 02:49:40;;;;;;;;;;;18.40;80.10;;;;;;5067227;28;19909;-77
2023/08/10 02:52:06;;;;;;;;;;;18.40;80.10;;;;;;5067227;28;19920;-77
2023/08/10 02:54:32;;;;;;;;;;;18.40;80.10;;;;;;5065893;28;19919;-77
2023/08/10 02:56:58;;;;;;;;;;;18.40;80.00;;;;;;5067381;28;19944;-77
2023/08/10 02:59:23;;;;;;;;;;;18.40;80.20;;;;;;5066007;28;20440;-77
2023/08/10 03:01:49;;;;;;;;;;;18.30;80.00;;;;;;5067065;28;19909;-77
2023/08/10 03:04:14;;;;;;;;;;;18.30;79.90;;;;;;5067233;28;19962;-77
2023/08/10 03:06:40;;;;;;;;;;;18.30;79.90;;;;;;5067237;28;19983;-77
2023/08/10 03:09:06;;;;;;;;;;;18.30;80.00;;;;;;5067125;28;19939;-77
2023/08/10 03:11:32;;;;;;;;;;;18.20;80.00;;;;;;5065739;28;20353;-77
2023/08/10 03:13:57;;;;;;;;;;;18.20;79.90;;;;;;5067175;28;19909;-77
2023/08/10 03:16:23;;;;;;;;;;;18.20;79.90;;;;;;5067175;28;19947;-77
2023/08/10 03:18:49;;;;;;;;;;;18.20;79.80;;;;;;5067003;28;19912;-77
2023/08/10 03:21:15;;;;;;;;;;;18.20;79.90;;;;;;5067160;28;20265;-77
2023/08/10 03:23:41;;;;;;;;;;;18.20;79.90;;;;;;5067363;28;20019;-77
2023/08/10 03:26:06;;;;;;;;;;;18.20;79.80;;;;;;5070763;28;19913;-77
2023/08/10 03:28:32;;;;;;;;;;;18.10;79.90;;;;;;5070534;28;19912;-77
2023/08/10 03:30:57;;;;;;;;;;;18.00;80.00;;;;;;5070472;28;19960;-77
2023/08/10 03:33:23;;;;;;;;;;;17.90;80.60;;;;;;5070918;28;19917;-77
2023/08/10 03:35:49;;;;;;;;;;;17.90;80.20;;;;;;5070555;28;19913;-77
2023/08/10 03:38:14;;;;;;;;;;;17.90;80.30;;;;;;5068933;28;19919;-77
2023/08/10 03:40:40;;;;;;;;;;;17.90;80.30;;;;;;5070359;28;19915;-77
2023/08/10 03:43:06;;;;;;;;;;;18.00;80.20;;;;;;5070426;28;20286;-77
2023/08/10 03:45:31;;;;;;;;;;;18.00;80.10;;;;;;5068890;28;19912;-77
2023/08/10 03:47:57;;;;;;;;;;;18.00;80.20;;;;;;5070131;28;19994;-77
2023/08/10 03:50:22;;;;;;;;;;;18.00;80.30;;;;;;5068842;28;19920;-77
2023/08/10 03:52:48;;;;;;;;;;;18.00;80.40;;;;;;5070023;28;19913;-77
2023/08/10 03:55:14;;;;;;;;;;;18.10;80.40;;;;;;5070271;28;19912;-77
2023/08/10 03:57:40;;;;;;;;;;;18.20;80.40;;;;;;5069444;28;20298;-77
2023/08/10 04:00:06;;;;;;;;;;;18.30;80.40;;;;;;5068944;28;19913;-78
2023/08/10 04:02:32;;;;;;;;;;;18.40;80.30;;;;;;5069707;28;19930;-77
2023/08/10 04:04:58;;;;;;;;;;;18.30;80.10;;;;;;5069947;28;19908;-77
2023/08/10 04:07:24;;;;;;;;;;;18.20;80.20;;;;;;5068492;28;19966;-77
2023/08/10 04:09:49;;;;;;;;;;;18.20;80.70;;;;;;5069855;28;19921;-77
2023/08/10 04:12:15;;;;;;;;;;;18.20;80.30;;;;;;5068430;28;19924;-77
2023/08/10 04:14:41;;;;;;;;;;;18.10;80.30;;;;;;5070067;28;20310;-77
2023/08/10 04:17:07;;;;;;;;;;;18.20;80.30;;;;;;5069792;28;19970;-77
2023/08/10 04:19:32;;;;;;;;;;;18.10;80.20;;;;;;5069609;28;19965;-77
2023/08/10 04:21:58;;;;;;;;;;;18.00;80.30;;;;;;5069671;28;20023;-77
2023/08/10 04:24:23;;;;;;;;;;;18.00;80.30;;;;;;5069605;28;19917;-77
2023/08/10 04:26:49;;;;;;;;;;;18.10;80.20;;;;;;5069587;28;19938;-77
2023/08/10 04:29:16;;;;;;;;;;;18.10;80.00;;;;;;5069482;28;19920;-77
2023/08/10 04:31:42;;;;;;;;;;;18.00;80.00;;;;;;5069328;28;19960;-77
2023/08/10 04:34:08;;;;;;;;;;;17.90;80.20;;;;;;5069025;28;19916;-77
2023/08/10 04:36:34;;;;;;;;;;;18.00;80.30;;;;;;5069208;28;19923;-77
2023/08/10 04:38:59;;;;;;;;;;;18.00;80.30;;;;;;5069295;28;19960;-77
2023/08/10 04:41:25;;;;;;;;;;;18.00;80.30;;;;;;5069323;28;20272;-77
2023/08/10 04:43:51;;;;;;;;;;;18.10;80.20;;;;;;5068130;28;19978;-77
2023/08/10 04:46:16;;;;;;;;;;;18.10;80.10;;;;;;5068934;28;19916;-77
2023/08/10 04:48:42;;;;;;;;;;;18.10;80.00;;;;;;5069001;28;19913;-77
2023/08/10 04:51:07;;;;;;;;;;;18.10;80.10;;;;;;5068861;28;19966;-70
2023/08/10 04:53:33;;;;;;;;;;;18.10;80.10;;;;;;5068710;28;19912;-77
2023/08/10 04:55:59;;;;;;;;;;;18.10;80.30;;;;;;5068866;28;20401;-77
2023/08/10 04:58:24;;;;;;;;;;;18.10;80.30;;;;;;5067526;28;19912;-77
2023/08/10 05:00:52;;;;;;;;;;;18.10;80.30;;;;;;5067312;28;20360;-77
2023/08/10 05:03:20;;;;;;;;;;;18.10;80.40;;;;;;5068710;28;19921;-77
2023/08/10 05:05:46;;;;;;;;;;;18.10;80.30;;;;;;5067332;28;20507;-77
2023/08/10 05:08:11;;;;;;;;;;;18.20;80.30;;;;;;5067110;28;19991;-77
2023/08/10 05:10:37;;;;;;;;;;;18.30;80.20;;;;;;5067437;28;20019;-77
2023/08/10 05:13:04;;;;;;;;;;;18.40;80.20;;;;;;5068260;28;19923;-77
2023/08/10 05:15:29;;;;;;;;;;;18.50;80.20;;;;;;5068703;28;19908;-77
2023/08/10 05:17:55;;;;;;;;;;;18.50;80.20;;;;;;5068331;28;20426;-77
2023/08/10 05:20:21;;;;;;;;;;;18.50;80.20;;;;;;5068439;28;19916;-77
2023/08/10 05:22:47;;;;;;;;;;;18.40;80.30;;;;;;5066985;28;19919;-77
2023/08/10 05:25:12;;;;;;;;;;;18.50;80.30;;;;;;5068393;28;19919;-74
2023/08/10 05:27:38;;;;;;;;;;;18.50;80.20;;;;;;5067068;28;20293;-77
2023/08/10 05:30:11;;;;;;;;;;;18.50;80.20;;;;;;5068064;28;19913;-76
2023/08/10 05:32:43;;;;;;;;;;;18.50;80.30;;;;;;5068074;28;19913;-77
2023/08/10 05:35:09;;;;;;;;;;;18.50;80.50;;;;;;5067214;28;19908;-77
2023/08/10 05:37:35;;;;;;;;;;;18.60;80.50;;;;;;5066819;28;19915;-77
2023/08/10 05:40:02;;;;;;;;;;;18.60;80.50;;;;;;5068137;28;20350;-76
2023/08/10 05:42:27;;;;;;;;;;;18.70;80.50;;;;;;5067960;28;19955;-76
2023/08/10 05:44:53;;;;;;;;;;;18.80;80.40;;;;;;5068466;28;19951;-77
2023/08/10 05:47:19;;;;;;;;;;;18.90;80.40;;;;;;5066180;28;20119;-76
2023/08/10 05:49:44;;;;;;;;;;;19.10;80.50;;;;;;5067815;28;19978;-76
2023/08/10 05:52:10;;;;;;;;;;;19.20;80.40;;;;;;5068041;28;19916;-76
2023/08/10 05:54:35;;;;;;;;;;;19.30;80.40;;;;;;5067983;28;20003;-76
2023/08/10 05:57:01;;;;;;;;;;;19.40;80.40;;;;;;5068212;28;19919;-76
2023/08/10 05:59:27;;;;;;;;;;;19.40;80.40;;;;;;5067471;28;19917;-68
2023/08/10 06:01:53;;;;;;;;;;;19.50;80.30;;;;;;5067400;28;20363;-68
2023/08/10 06:04:18;;;;;;;;;;;19.60;80.20;;;;;;5067380;28;20360;-67
2023/08/10 06:06:46;;;;;;;;;;;19.60;80.10;;;;;;5067613;28;19978;-77
2023/08/10 06:09:12;;;;;;;;;;;19.70;80.20;;;;;;5067391;28;20033;-77
2023/08/10 06:11:38;;;;;;;;;;;19.80;80.20;;;;;;5067589;28;19913;-76
2023/08/10 06:14:04;;;;;;;;;;;19.80;80.20;;;;;;5066376;28;20363;-76
2023/08/10 06:16:29;;;;;;;;;;;19.80;80.30;;;;;;5067450;28;20322;-76
2023/08/10 06:18:55;;;;;;;;;;;19.90;80.60;;;;;;5067418;28;20365;-76
2023/08/10 06:21:21;;;;;;;;;;;20.10;80.50;;;;;;5067553;28;20017;-77
2023/08/10 06:23:46;;;;;;;;;;;20.20;80.40;;;;;;5067571;28;20246;-77
2023/08/10 06:26:12;;;;;;;;;;;20.30;80.10;;;;;;5067493;28;19925;-76
2023/08/10 06:28:38;;;;;;;;;;;20.20;80.10;;;;;;5066088;28;19916;-77
2023/08/10 06:31:07;;;;;;;;;;;20.10;80.30;;;;;;5065977;28;19928;-77
2023/08/10 06:33:33;;;;;;;;;;;20.10;80.60;;;;;;5067281;28;19912;-76
2023/08/10 06:35:58;;;;;;;;;;;20.60;81.30;;;;;;5066110;28;19912;-77
2023/08/10 06:38:25;;;;;;;;;;;21.20;80.10;;;;;;5067377;28;19916;-77
2023/08/10 06:40:52;;;;;;;;;;;21.30;79.50;;;;;;5066135;28;19993;-77
2023/08/10 06:43:18;;;;;;;;;;;21.20;79.60;;;;;;5067569;28;19966;-76
2023/08/10 06:45:43;;;;;;;;;;;21.30;79.90;;;;;;5066006;28;19920;-76
2023/08/10 06:48:09;;;;;;;;;;;21.30;80.10;;;;;;5067034;28;19915;-77
2023/08/10 06:50:34;;;;;;;;;;;21.40;80.30;;;;;;5065800;28;20441;-76
2023/08/10 06:53:00;;;;;;;;;;;21.50;80.20;;;;;;5067428;28;19921;-76
2023/08/10 06:55:27;;;;;;;;;;;21.50;80.10;;;;;;5066962;28;19915;-77
2023/08/10 06:57:53;;;;;;;;;;;21.50;80.10;;;;;;5067815;28;19919;-76
2023/08/10 07:00:20;;;;;;;;;;;21.50;80.10;;;;;;5070319;28;19913;-76
2023/08/10 07:02:48;;;;;;;;;;;21.40;80.10;;;;;;5070306;28;19966;-77
2023/08/10 07:05:15;;;;;;;;;;;21.30;80.10;;;;;;5070804;28;19958;-77
2023/08/10 07:07:41;;;;;;;;;;;21.20;80.20;;;;;;5069591;28;19923;-76
2023/08/10 07:10:07;;;;;;;;;;;21.20;80.30;;;;;;5069084;28;19908;-76
2023/08/10 07:12:33;;;;;;;;;;;21.20;80.40;;;;;;5070425;28;19912;-76
2023/08/10 07:14:58;;;;;;;;;;;21.20;80.50;;;;;;5072234;28;20469;-76
2023/08/10 07:17:24;;;;;;;;;;;21.20;80.50;;;;;;5070856;28;19970;-77
2023/08/10 07:19:49;;;;;;;;;;;21.20;80.60;;;;;;5070815;28;20273;-77
2023/08/10 07:22:15;;;;;;;;;;;21.10;81.20;;;;;;5070741;28;19920;-77
2023/08/10 07:24:41;;;;;;;;;;;21.10;80.70;;;;;;5069399;28;19975;-76
2023/08/10 07:27:06;;;;;;;;;;;21.10;80.70;;;;;;5069162;28;19938;-77
2023/08/10 07:29:32;;;;;;;;;;;21.20;80.80;;;;;;5070182;28;19913;-77
2023/08/10 07:32:00;;;;;;;;;;;21.20;80.80;;;;;;5068811;28;19917;-76
2023/08/10 07:34:27;;;;;;;;;;;21.20;80.80;;;;;;5070160;28;19919;-76
2023/08/10 07:36:53;;;;;;;;;;;21.30;81.00;;;;;;5068481;28;19948;-77
2023/08/10 07:39:19;;;;;;;;;;;21.40;80.90;;;;;;5070047;28;20353;-72
2023/08/10 07:41:44;;;;;;;;;;;21.40;80.70;;;;;;5070280;28;19921;-77
2023/08/10 07:44:10;;;;;;;;;;;21.50;80.80;;;;;;5070052;28;19916;-76
2023/08/10 07:46:35;;;;;;;;;;;21.50;80.80;;;;;;5070091;28;20092;-77
2023/08/10 07:49:01;;;;;;;;;;;21.60;80.80;;;;;;5069816;28;19923;-77
2023/08/10 07:51:26;;;;;;;;;;;21.60;81.00;;;;;;5070061;28;19991;-75
2023/08/10 07:53:52;;;;;;;;;;;21.70;80.90;;;;;;5069850;28;19916;-77
2023/08/10 07:56:18;;;;;;;;;;;21.80;80.90;;;;;;5069635;28;19913;-76
2023/08/10 07:58:43;;;;;;;;;;;21.80;80.80;;;;;;5068281;28;19920;-76
2023/08/10 08:01:09;;;;;;;;;;;21.80;80.80;;;;;;5069437;28;20288;-77
2023/08/10 08:03:35;;;;;;;;;;;21.80;80.90;;;;;;5068240;28;19925;-76
2023/08/10 08:06:00;;;;;;;;;;;21.90;81.00;;;;;;5069772;28;20704;-77
2023/08/10 08:08:28;;;;;;;;;;;22.20;81.50;;;;;;5068077;28;19919;-77
2023/08/10 08:10:54;;;;;;;;;;;22.80;81.60;;;;;;5069521;28;19912;-76
2023/08/10 08:13:20;;;;;;;;;;;23.60;81.40;;;;;;5069190;28;19927;-77
2023/08/10 08:15:45;;;;;;;;;;;24.60;81.70;;;;;;5068788;28;20011;-77
2023/08/10 08:18:30;;;;;;;;;;;26.10;81.50;;;;;;5068085;28;19912;-77
2023/08/10 08:20:57;;;;;;;;;;;27.20;81.00;;;;;;5067984;28;19920;-77
2023/08/10 08:23:22;;;;;;;;;;;28.50;81.00;;;;;;5069059;28;19913;-77
2023/08/10 08:25:48;;;;;;;;;;;28.90;79.90;;;;;;5068918;28;19965;-77
2023/08/10 08:28:14;;;;;;;;;;;29.50;80.40;;;;;;5069062;28;19912;-77
2023/08/10 08:30:39;;;;;;;;;;;30.20;80.30;;;;;;5069023;28;19981;-78
2023/08/10 08:33:05;;;;;;;;;;;30.40;79.70;;;;;;5068764;28;19916;-77
2023/08/10 08:35:31;;;;;;;;;;;30.70;79.90;;;;;;5068673;28;19942;-78
2023/08/10 08:37:56;;;;;;;;;;;31.30;80.40;;;;;;5068831;28;19912;-77
2023/08/10 08:40:22;;;;;;;;;;;32.00;80.50;;;;;;5068601;28;19909;-78
2023/08/10 08:42:48;;;;;;;;;;;32.60;80.40;;;;;;5068539;28;19986;-77
2023/08/10 08:45:15;;;;;;;;;;;33.20;80.30;;;;;;5067332;28;20356;-75
2023/08/10 08:47:41;;;;;;;;;;;33.50;79.80;;;;;;5086734;28;19947;-79
2023/08/10 08:50:07;;;;;;;;;;;33.60;79.60;;;;;;5089473;28;19908;-79
2023/08/10 08:52:32;;;;;;;;;;;33.80;80.20;;;;;;5070745;28;19962;-79
2023/08/10 08:54:58;;;;;;;;;;;33.90;80.00;;;;;;5091310;28;20030;-76
2023/08/10 08:57:24;;;;;;;;;;;33.60;80.10;;;;;;5089377;28;19913;-78
2023/08/10 08:59:49;;;;;;;;;;;33.40;80.10;;;;;;5089818;28;19965;-78
2023/08/10 09:02:15;;;;;;;;;;;32.70;79.90;;;;;;5089229;28;19946;-77
2023/08/10 09:04:41;;;;;;;;;;;31.80;80.10;;;;;;5089491;28;19959;-77
2023/08/10 09:07:06;;;;;;;;;;;31.00;80.00;;;;;;5089675;28;20360;-77
2023/08/10 09:09:32;;;;;;;;;;;30.10;80.00;;;;;;5086460;28;19924;-78
2023/08/10 09:12:18;;;;;;;;;;;29.50;81.30;;;;;;5086769;28;19916;-77
2023/08/10 09:14:59;;;;;;;;;;;30.10;82.70;;;;;;5088086;28;19916;-77
2023/08/10 09:17:25;;;;;;;;;;;30.80;82.20;;;;;;5088779;28;19920;-77
2023/08/10 09:19:51;;;;;;;;;;;31.30;82.10;;;;;;5088320;28;19923;-77
2023/08/10 09:22:25;;;;;;;;;;;31.80;82.60;;;;;;5082884;28;19959;-77
2023/08/10 09:24:51;;;;;;;;;;;32.40;82.30;;;;;;5086394;28;19912;-77
2023/08/10 09:27:17;;;;;;;;;;;32.90;81.90;;;;;;5087007;28;19977;-77
2023/08/10 09:29:42;;;;;;;;;;;33.00;81.50;;;;;;5088518;28;19974;-75
2023/08/10 09:32:08;;;;;;;;;;;33.00;81.90;;;;;;5089417;28;19916;-82
2023/08/10 09:34:33;;;;;;;;;;;33.30;82.10;;;;;;5088602;28;19919;-82
2023/08/10 09:36:59;;;;;;;;;;;33.60;82.00;;;;;;5089467;28;20010;-82
2023/08/10 09:39:28;;;;;;;;;;;34.00;82.10;;;;;;5089068;28;20379;-81
2023/08/10 09:41:55;;;;;;;;;;;34.50;82.10;;;;;;5089770;28;19908;-81
2023/08/10 09:44:21;;;;;;;;;;;34.70;81.60;;;;;;5088346;28;19916;-81
2023/08/10 09:46:54;;;;;;;;;;;34.60;81.50;;;;;;5088450;28;20042;-81
2023/08/10 09:49:20;;;;;;;;;;;34.50;82.00;;;;;;5088759;28;20364;-81
2023/08/10 09:51:47;;;;;;;;;;;34.20;81.90;;;;;;5088321;28;19970;-82
2023/08/10 09:54:13;;;;;;;;;;;34.00;82.00;;;;;;5089801;28;19973;-79
2023/08/10 09:56:41;;;;;;;;;;;34.00;82.40;;;;;;5075411;28;20348;-81
2023/08/10 09:59:07;;;;;;;;;;;34.00;82.50;;;;;;5087907;28;19923;-80
2023/08/10 10:01:33;;;;;;;;;;;34.00;82.60;;;;;;5086707;28;19912;-79
2023/08/10 10:03:58;;;;;;;;;;;34.10;82.40;;;;;;5087868;28;20283;-75
2023/08/10 10:06:24;;;;;;;;;;;34.20;82.40;;;;;;5088601;28;19912;-82
2023/08/10 10:08:55;;;;;;;;;;;34.20;82.40;;;;;;5088211;28;19912;-82
2023/08/10 10:11:21;;;;;;;;;;;34.10;82.30;;;;;;5088881;28;20383;-77
2023/08/10 10:13:47;;;;;;;;;;;34.00;82.40;;;;;;5069866;28;19908;-78
2023/08/10 10:16:12;;;;;;;;;;;33.90;82.50;;;;;;5063126;28;20386;-78
2023/08/10 10:18:38;;;;;;;;;;;34.00;83.00;;;;;;5087495;28;19912;-81
2023/08/10 10:21:04;;;;;;;;;;;34.40;83.20;;;;;;5087754;28;19908;-79
2023/08/10 10:23:30;;;;;;;;;;;34.80;83.20;;;;;;5086874;28;19908;-79
2023/08/10 10:25:59;;;;;;;;;;;35.20;83.20;;;;;;5089591;28;20072;-82
2023/08/10 10:28:26;;;;;;;;;;;35.50;82.80;;;;;;5088422;28;19952;-78
2023/08/10 10:30:56;;;;;;;;;;;35.50;82.40;;;;;;5089065;28;19916;-82
2023/08/10 10:33:23;;;;;;;;;;;35.30;82.40;;;;;;5092542;28;19917;-78
2023/08/10 10:36:09;;;;;;;;;;;35.20;82.50;;;;;;5097870;28;19939;-76
2023/08/10 10:38:34;;;;;;;;;;;35.00;82.50;;;;;;5088074;28;19931;-80
2023/08/10 10:41:16;;;;;;;;;;;35.00;83.00;;;;;;5093674;28;19923;-81
2023/08/10 10:43:44;;;;;;;;;;;35.00;83.00;;;;;;5093701;28;19917;-82
2023/08/10 10:46:28;;;;;;;;;;;35.10;83.10;;;;;;5092054;28;19916;-78
2023/08/10 10:48:53;;;;;;;;;;;35.20;83.20;;;;;;5093474;28;19916;-78
2023/08/10 10:51:21;;;;;;;;;;;35.30;83.20;;;;;;5092124;28;19912;-80
2023/08/10 10:53:47;;;;;;;;;;;35.30;83.50;;;;;;5093904;28;19977;-86
2023/08/10 10:56:13;;;;;;;;;;;35.50;83.50;;;;;;5075198;28;19912;-82
2023/08/10 10:58:39;;;;;;;;;;;35.40;83.10;;;;;;5093403;28;19909;-79
2023/08/10 11:01:05;;;;;;;;;;;35.30;83.00;;;;;;5075497;28;20437;-84
2023/08/10 11:03:31;;;;;;;;;;;35.10;83.20;;;;;;5091647;28;19936;-71
2023/08/10 11:05:56;;;;;;;;;;;35.30;83.60;;;;;;5090307;28;19912;-81
2023/08/10 11:08:22;;;;;;;;;;;35.70;83.20;;;;;;5074622;28;19912;-84
2023/08/10 11:10:51;;;;;;;;;;;35.50;83.20;;;;;;5091210;28;19912;-84
2023/08/10 11:13:16;;;;;;;;;;;35.60;84.00;;;;;;5092025;28;19941;-79
2023/08/10 11:15:45;;;;;;;;;;;35.60;83.30;;;;;;5092846;28;19912;-80
2023/08/10 11:18:12;;;;;;;;;;;35.40;83.40;;;;;;5091077;28;19962;-83
2023/08/10 11:20:41;;;;;;;;;;;35.50;83.70;;;;;;5091882;28;19923;-83
2023/08/10 11:23:07;;;;;;;;;;;35.50;83.50;;;;;;5091733;28;20310;-84
2023/08/10 11:25:33;;;;;;;;;;;35.50;83.80;;;;;;5093565;28;19912;-80
2023/08/10 11:27:59;;;;;;;;;;;35.80;84.10;;;;;;5076703;28;19942;-83
2023/08/10 11:30:25;;;;;;;;;;;36.10;83.70;;;;;;5094265;28;19912;-82
2023/08/10 11:32:52;;;;;;;;;;;36.30;83.10;;;;;;5091689;28;19912;-86
2023/08/10 11:35:19;;;;;;;;;;;36.00;82.60;;;;;;5091337;28;19912;-85
2023/08/10 11:37:44;;;;;;;;;;;35.60;82.70;;;;;;5092592;28;19912;-83
2023/08/10 11:40:15;;;;;;;;;;;35.20;82.60;;;;;;5093869;28;20061;-82
2023/08/10 11:42:41;;;;;;;;;;;35.20;82.60;;;;;;5094407;28;20008;-86
2023/08/10 11:45:08;;;;;;;;;;;34.60;81.20;;;;;;5092784;28;20301;-80
2023/08/10 11:47:47;;;;;;;;;;;33.70;80.70;;;;;;5094386;28;19926;-84
2023/08/10 11:50:13;;;;;;;;;;;32.80;80.50;;;;;;5092722;28;19912;-84
2023/08/10 11:52:39;;;;;;;;;;;31.90;80.70;;;;;;5093434;28;20341;-80
2023/08/10 11:55:12;;;;;;;;;;;31.10;80.70;;;;;;5091211;28;19918;-79
2023/08/10 11:57:42;;;;;;;;;;;30.40;80.70;;;;;;5091626;28;19908;-83
2023/08/10 12:00:16;;;;;;;;;;;29.70;80.80;;;;;;5074277;28;19913;-83
2023/08/10 12:02:54;;;;;;;;;;;29.30;81.20;;;;;;5054783;28;19924;-85
2023/08/10 12:05:30;;;;;;;;;;;29.10;81.80;;;;;;5072177;28;20291;-78
2023/08/10 12:07:58;;;;;;;;;;;29.10;82.10;;;;;;5071932;28;19916;-74
2023/08/10 12:10:24;;;;;;;;;;;29.60;82.80;;;;;;5071172;28;19913;-82
2023/08/10 12:12:56;;;;;;;;;;;29.90;81.90;;;;;;5071525;28;20256;-80
2023/08/10 12:15:23;;;;;;;;;;;30.30;82.20;;;;;;5071781;28;20398;-79
2023/08/10 12:17:49;;;;;;;;;;;30.30;81.50;;;;;;5087353;28;19920;-75
2023/08/10 12:20:15;;;;;;;;;;;30.10;80.90;;;;;;5094201;28;19916;-68
2023/08/10 12:22:41;;;;;;;;;;;29.80;80.70;;;;;;5095462;28;19970;-81
2023/08/10 12:25:07;;;;;;;;;;;29.80;81.50;;;;;;5093170;28;19916;-85
2023/08/10 12:27:32;;;;;;;;;;;30.10;81.80;;;;;;5093231;28;20049;-84
2023/08/10 12:29:58;;;;;;;;;;;30.60;81.90;;;;;;5074153;28;19912;-84
2023/08/10 12:32:23;;;;;;;;;;;30.90;81.60;;;;;;5090584;28;19952;-84
2023/08/10 12:34:49;;;;;;;;;;;31.20;81.40;;;;;;5090525;28;19913;-79
2023/08/10 12:37:15;;;;;;;;;;;31.30;81.20;;;;;;5073969;28;19931;-82
2023/08/10 12:39:40;;;;;;;;;;;31.40;81.20;;;;;;5089743;28;19916;-76
2023/08/10 12:42:06;;;;;;;;;;;31.40;81.50;;;;;;5073680;28;19916;-79
2023/08/10 12:44:31;;;;;;;;;;;31.60;81.70;;;;;;5090720;28;19912;-79
2023/08/10 12:46:57;;;;;;;;;;;32.00;82.20;;;;;;5090128;28;19919;-76
2023/08/10 12:49:23;;;;;;;;;;;32.30;82.20;;;;;;5091802;28;20042;-76
2023/08/10 12:51:48;;;;;;;;;;;32.60;82.70;;;;;;5090731;28;19941;-78
2023/08/10 12:54:14;;;;;;;;;;;33.00;82.60;;;;;;5091187;28;19940;-77
2023/08/10 12:56:40;;;;;;;;;;;33.40;82.30;;;;;;5089439;28;20688;-79
2023/08/10 12:59:05;;;;;;;;;;;33.70;81.90;;;;;;5090633;28;19919;-75
2023/08/10 13:01:32;;;;;;;;;;;33.80;81.90;;;;;;5090637;28;19920;-82
2023/08/10 13:03:58;;;;;;;;;;;33.80;81.80;;;;;;5090496;28;20343;-82
2023/08/10 13:06:24;;;;;;;;;;;33.40;82.40;;;;;;5092133;28;19912;-78
2023/08/10 13:08:50;;;;;;;;;;;33.20;82.70;;;;;;5089131;28;19916;-78
2023/08/10 13:11:16;;;;;;;;;;;33.30;82.70;;;;;;5091301;28;19921;-77
2023/08/10 13:13:42;;;;;;;;;;;33.10;82.40;;;;;;5091302;28;19912;-81
2023/08/10 13:16:07;;;;;;;;;;;32.80;82.80;;;;;;5074926;28;19912;-85
2023/08/10 13:18:33;;;;;;;;;;;32.90;83.10;;;;;;5093882;28;20367;-82
2023/08/10 13:20:58;;;;;;;;;;;33.00;82.60;;;;;;5072361;28;20145;-79
2023/08/10 13:23:24;;;;;;;;;;;33.00;82.80;;;;;;5091410;28;19916;-79
2023/08/10 13:25:49;;;;;;;;;;;33.10;82.70;;;;;;5094753;28;19920;-84
2023/08/10 13:28:15;;;;;;;;;;;33.00;82.20;;;;;;5091944;28;19962;-79
2023/08/10 13:30:40;;;;;;;;;;;32.80;82.10;;;;;;5085327;28;19916;-87
2023/08/10 13:33:06;;;;;;;;;;;32.70;82.30;;;;;;5072259;28;20467;-78
2023/08/10 13:35:32;;;;;;;;;;;32.20;81.70;;;;;;5088365;28;19912;-85
2023/08/10 13:37:57;;;;;;;;;;;31.70;81.60;;;;;;5099918;28;20020;-83
2023/08/10 13:40:23;;;;;;;;;;;31.20;81.00;;;;;;5074222;28;19999;-82
2023/08/10 13:42:48;;;;;;;;;;;30.70;80.90;;;;;;5086615;28;19916;-84
2023/08/10 13:45:14;;;;;;;;;;;30.30;81.10;;;;;;5090704;28;19912;-82
2023/08/10 13:47:40;;;;;;;;;;;30.00;80.90;;;;;;5070469;28;19923;-82
2023/08/10 13:50:06;;;;;;;;;;;29.70;81.00;;;;;;5088059;28;19909;-84
2023/08/10 13:52:31;;;;;;;;;;;29.60;81.20;;;;;;5073054;28;19915;-84
2023/08/10 13:54:58;;;;;;;;;;;29.40;81.10;;;;;;5076812;28;20003;-83
2023/08/10 13:57:24;;;;;;;;;;;29.30;81.20;;;;;;5097174;28;19911;-85
2023/08/10 13:59:49;;;;;;;;;;;29.30;81.20;;;;;;5096665;28;19952;-85
2023/08/10 14:02:15;;;;;;;;;;;29.40;81.10;;;;;;5075086;28;19989;-78
2023/08/10 14:04:41;;;;;;;;;;;29.60;80.90;;;;;;5090781;28;19923;-76
2023/08/10 14:07:07;;;;;;;;;;;29.50;80.80;;;;;;5089711;28;20320;-79
2023/08/10 14:09:32;;;;;;;;;;;29.60;80.80;;;;;;5091297;28;19912;-79
2023/08/10 14:11:58;;;;;;;;;;;29.50;80.50;;;;;;5088981;28;19916;-79